Clinton, Illinois
Current Conditions -  °F | °C
As of 8:55 AM on Thursday 23 Oct 2014 (Local Time) from KAAA Reporting Station
Clear Clear  
Wind Chill: 43°   Ceiling: Unl
Heat Index: 46°   Visibility: 10mi
Dew Point: 42°   Wind: 5mph
Humidity: 87%   Direction: 170°S
Pressure: 30.22"   Gusts: NA
Location:  40.15°N, 88.96°W
Report Text: KAAA 231355Z AUTO 17004KT 10SM CLR 08/06 A3022 RMK AO2 T00760056
Loading
Personal Weather Stations






























Interactive Weather Map
Tropical Storm Tracking
New forecast layout! Learn more

10-Day Weather Forecast

Advertisements
Track Severe Weather on mobile